sensor_id;sensor_type;location;lat;lon;timestamp;pressure;altitude;pressure_sealevel;temperature;humidity
62164;BME280;48149;51.132;7.178;2023-04-27T00:01:38;98939.03;;;20.71;30.36
62164;BME280;48149;51.132;7.178;2023-04-27T00:04:03;98942.22;;;20.83;30.85
62164;BME280;48149;51.132;7.178;2023-04-27T00:06:29;98938.03;;;20.57;30.57
62164;BME280;48149;51.132;7.178;2023-04-27T00:08:54;98948.38;;;19.47;31.15
62164;BME280;48149;51.132;7.178;2023-04-27T00:11:20;98940.16;;;20.24;31.55
62164;BME280;48149;51.132;7.178;2023-04-27T00:13:45;98937.78;;;20.23;31.44
62164;BME280;48149;51.132;7.178;2023-04-27T00:16:10;98933.81;;;20.05;31.43
62164;BME280;48149;51.132;7.178;2023-04-27T00:18:36;98939.66;;;20.48;30.63
62164;BME280;48149;51.132;7.178;2023-04-27T00:21:02;98939.41;;;19.94;31.29
62164;BME280;48149;51.132;7.178;2023-04-27T00:23:27;98937.78;;;19.67;31.96
62164;BME280;48149;51.132;7.178;2023-04-27T00:25:52;98935.66;;;20.05;31.83
62164;BME280;48149;51.132;7.178;2023-04-27T00:28:18;98942.28;;;19.67;32.00
62164;BME280;48149;51.132;7.178;2023-04-27T00:30:43;98945.47;;;19.74;31.71
62164;BME280;48149;51.132;7.178;2023-04-27T00:33:09;98947.03;;;19.45;31.49
62164;BME280;48149;51.132;7.178;2023-04-27T00:35:34;98942.28;;;19.62;31.43
62164;BME280;48149;51.132;7.178;2023-04-27T00:37:59;98942.13;;;19.16;32.08
62164;BME280;48149;51.132;7.178;2023-04-27T00:40:24;98939.41;;;20.34;31.25
62164;BME280;48149;51.132;7.178;2023-04-27T00:42:50;98947.09;;;20.10;30.95
62164;BME280;48149;51.132;7.178;2023-04-27T00:45:15;98941.78;;;20.36;30.94
62164;BME280;48149;51.132;7.178;2023-04-27T00:47:41;98936.47;;;20.31;31.10
62164;BME280;48149;51.132;7.178;2023-04-27T00:50:06;98948.66;;;20.57;30.83
62164;BME280;48149;51.132;7.178;2023-04-27T00:52:36;98956.91;;;19.59;31.64
62164;BME280;48149;51.132;7.178;2023-04-27T00:55:02;98961.44;;;20.19;31.03
62164;BME280;48149;51.132;7.178;2023-04-27T00:57:28;98955.28;;;20.64;30.63
62164;BME280;48149;51.132;7.178;2023-04-27T00:59:53;98955.06;;;20.26;30.73
62164;BME280;48149;51.132;7.178;2023-04-27T01:02:18;98957.69;;;20.66;30.92
62164;BME280;48149;51.132;7.178;2023-04-27T01:04:44;98952.66;;;20.39;31.07
62164;BME280;48149;51.132;7.178;2023-04-27T01:07:09;98957.72;;;19.85;31.65
62164;BME280;48149;51.132;7.178;2023-04-27T01:09:34;98950.28;;;19.87;31.53
62164;BME280;48149;51.132;7.178;2023-04-27T01:12:00;98957.94;;;20.69;30.86
62164;BME280;48149;51.132;7.178;2023-04-27T01:14:27;98955.53;;;20.78;30.57
62164;BME280;48149;51.132;7.178;2023-04-27T01:16:52;98952.94;;;19.72;31.70
62164;BME280;48149;51.132;7.178;2023-04-27T01:19:17;98954.53;;;19.83;31.83
62164;BME280;48149;51.132;7.178;2023-04-27T01:21:43;98949.06;;;19.23;32.39
62164;BME280;48149;51.132;7.178;2023-04-27T01:24:08;98956.09;;;19.54;32.30
62164;BME280;48149;51.132;7.178;2023-04-27T01:26:33;98950.28;;;20.02;31.94
62164;BME280;48149;51.132;7.178;2023-04-27T01:28:59;98948.03;;;19.29;32.70
62164;BME280;48149;51.132;7.178;2023-04-27T01:31:24;98950.50;;;19.55;32.11
62164;BME280;48149;51.132;7.178;2023-04-27T01:33:49;98945.16;;;19.40;32.75
62164;BME280;48149;51.132;7.178;2023-04-27T01:36:15;98938.63;;;18.49;32.60
62164;BME280;48149;51.132;7.178;2023-04-27T01:38:40;98946.78;;;19.46;32.72
62164;BME280;48149;51.132;7.178;2023-04-27T01:41:06;98939.38;;;18.44;33.32
62164;BME280;48149;51.132;7.178;2023-04-27T01:43:33;98952.94;;;19.72;32.12
62164;BME280;48149;51.132;7.178;2023-04-27T01:46:05;98942.72;;;18.25;33.19
62164;BME280;48149;51.132;7.178;2023-04-27T01:48:31;98952.44;;;18.51;33.34
62164;BME280;48149;51.132;7.178;2023-04-27T01:50:56;98950.38;;;18.58;33.04
62164;BME280;48149;51.132;7.178;2023-04-27T01:53:22;98956.19;;;18.55;33.47
62164;BME280;48149;51.132;7.178;2023-04-27T01:55:47;98956.63;;;18.47;33.91
62164;BME280;48149;51.132;7.178;2023-04-27T01:58:12;98960.56;;;18.02;33.75
62164;BME280;48149;51.132;7.178;2023-04-27T02:00:38;98966.13;;;18.75;33.92
62164;BME280;48149;51.132;7.178;2023-04-27T02:03:06;98969.00;;;18.68;33.16
62164;BME280;48149;51.132;7.178;2023-04-27T02:05:31;98971.72;;;18.09;34.22
62164;BME280;48149;51.132;7.178;2023-04-27T02:07:57;98967.28;;;18.52;33.66
62164;BME280;48149;51.132;7.178;2023-04-27T02:10:22;98971.97;;;18.45;34.06
62164;BME280;48149;51.132;7.178;2023-04-27T02:12:47;98972.97;;;18.66;33.55
62164;BME280;48149;51.132;7.178;2023-04-27T02:15:12;98985.44;;;17.75;34.74
62164;BME280;48149;51.132;7.178;2023-04-27T02:17:38;98971.66;;;18.36;33.65
62164;BME280;48149;51.132;7.178;2023-04-27T02:20:03;98971.50;;;17.84;34.34
62164;BME280;48149;51.132;7.178;2023-04-27T02:22:31;98973.22;;;18.00;34.29
62164;BME280;48149;51.132;7.178;2023-04-27T02:24:56;98975.38;;;18.03;34.59
62164;BME280;48149;51.132;7.178;2023-04-27T02:27:21;98973.72;;;18.24;34.82
62164;BME280;48149;51.132;7.178;2023-04-27T02:29:46;98972.91;;;18.24;34.67
62164;BME280;48149;51.132;7.178;2023-04-27T02:32:12;98973.28;;;17.74;34.80
62164;BME280;48149;51.132;7.178;2023-04-27T02:34:37;98966.69;;;17.81;34.64
62164;BME280;48149;51.132;7.178;2023-04-27T02:37:02;98965.13;;;18.49;34.29
62164;BME280;48149;51.132;7.178;2023-04-27T02:39:27;98958.84;;;18.23;34.46
62164;BME280;48149;51.132;7.178;2023-04-27T02:41:53;98960.13;;;17.84;34.32
62164;BME280;48149;51.132;7.178;2023-04-27T02:44:18;98958.13;;;17.21;34.77
62164;BME280;48149;51.132;7.178;2023-04-27T02:46:43;98956.97;;;17.60;34.71
62164;BME280;48149;51.132;7.178;2023-04-27T02:49:08;98968.59;;;17.86;34.31
62164;BME280;48149;51.132;7.178;2023-04-27T02:51:34;98965.38;;;18.10;35.05
62164;BME280;48149;51.132;7.178;2023-04-27T02:53:59;98965.34;;;18.05;34.52
62164;BME280;48149;51.132;7.178;2023-04-27T02:56:24;98958.44;;;18.41;34.73
62164;BME280;48149;51.132;7.178;2023-04-27T02:58:50;98960.38;;;18.14;33.96
62164;BME280;48149;51.132;7.178;2023-04-27T03:01:15;98960.78;;;17.47;34.91
62164;BME280;48149;51.132;7.178;2023-04-27T03:03:44;98955.97;;;17.66;34.86
62164;BME280;48149;51.132;7.178;2023-04-27T03:06:09;98955.66;;;17.89;35.10
62164;BME280;48149;51.132;7.178;2023-04-27T03:08:34;98947.13;;;17.34;35.06
62164;BME280;48149;51.132;7.178;2023-04-27T03:10:59;98952.72;;;17.86;34.94
62164;BME280;48149;51.132;7.178;2023-04-27T03:13:25;98957.25;;;17.58;35.92
62164;BME280;48149;51.132;7.178;2023-04-27T03:15:50;98951.59;;;18.45;34.69
62164;BME280;48149;51.132;7.178;2023-04-27T03:18:15;98949.75;;;17.07;35.99
62164;BME280;48149;51.132;7.178;2023-04-27T03:20:40;98946.75;;;17.47;35.42
62164;BME280;48149;51.132;7.178;2023-04-27T03:23:06;98939.56;;;17.64;35.78
62164;BME280;48149;51.132;7.178;2023-04-27T03:25:31;98936.34;;;17.14;35.99
62164;BME280;48149;51.132;7.178;2023-04-27T03:27:56;98940.44;;;17.26;35.76
62164;BME280;48149;51.132;7.178;2023-04-27T03:30:21;98941.72;;;17.45;35.48
62164;BME280;48149;51.132;7.178;2023-04-27T03:32:47;98940.66;;;17.46;35.74
62164;BME280;48149;51.132;7.178;2023-04-27T03:35:12;98949.69;;;17.24;36.17
62164;BME280;48149;51.132;7.178;2023-04-27T03:37:37;98949.06;;;17.17;36.15
62164;BME280;48149;51.132;7.178;2023-04-27T03:40:03;98946.72;;;17.42;36.15
62164;BME280;48149;51.132;7.178;2023-04-27T03:42:31;98942.31;;;17.74;35.77
62164;BME280;48149;51.132;7.178;2023-04-27T03:44:56;98943.69;;;17.55;36.16
62164;BME280;48149;51.132;7.178;2023-04-27T03:47:21;98948.19;;;17.33;36.02
62164;BME280;48149;51.132;7.178;2023-04-27T03:49:47;98946.38;;;17.87;36.22
62164;BME280;48149;51.132;7.178;2023-04-27T03:52:12;98949.19;;;16.83;36.45
62164;BME280;48149;51.132;7.178;2023-04-27T03:54:37;98952.44;;;16.90;37.35
62164;BME280;48149;51.132;7.178;2023-04-27T03:57:02;98953.25;;;16.69;36.85
62164;BME280;48149;51.132;7.178;2023-04-27T03:59:28;98950.06;;;16.89;37.04
62164;BME280;48149;51.132;7.178;2023-04-27T04:01:54;98950.78;;;16.63;37.28
62164;BME280;48149;51.132;7.178;2023-04-27T04:04:20;98948.75;;;17.35;36.81
62164;BME280;48149;51.132;7.178;2023-04-27T04:06:45;98949.25;;;17.10;36.79
62164;BME280;48149;51.132;7.178;2023-04-27T04:09:10;98950.56;;;16.86;37.09
62164;BME280;48149;51.132;7.178;2023-04-27T04:11:36;98955.41;;;17.16;37.27
62164;BME280;48149;51.132;7.178;2023-04-27T04:14:01;98962.03;;;17.40;36.96
62164;BME280;48149;51.132;7.178;2023-04-27T04:16:27;98967.44;;;18.03;36.29
62164;BME280;48149;51.132;7.178;2023-04-27T04:18:52;98973.63;;;16.74;37.09
62164;BME280;48149;51.132;7.178;2023-04-27T04:21:17;98972.63;;;17.93;36.58
62164;BME280;48149;51.132;7.178;2023-04-27T04:23:42;98979.91;;;16.68;37.09
62164;BME280;48149;51.132;7.178;2023-04-27T04:26:08;98972.00;;;16.51;38.43
62164;BME280;48149;51.132;7.178;2023-04-27T04:28:34;98976.34;;;16.57;38.34
62164;BME280;48149;51.132;7.178;2023-04-27T04:30:59;98970.38;;;16.50;38.16
62164;BME280;48149;51.132;7.178;2023-04-27T04:33:25;98979.53;;;16.97;37.34
62164;BME280;48149;51.132;7.178;2023-04-27T04:35:51;98979.97;;;17.33;37.49
62164;BME280;48149;51.132;7.178;2023-04-27T04:38:17;98982.69;;;17.43;37.28
62164;BME280;48149;51.132;7.178;2023-04-27T04:40:42;98992.72;;;17.63;37.34
62164;BME280;48149;51.132;7.178;2023-04-27T04:43:08;98984.41;;;17.54;37.03
62164;BME280;48149;51.132;7.178;2023-04-27T04:45:33;98982.66;;;17.16;36.52
62164;BME280;48149;51.132;7.178;2023-04-27T04:47:58;98981.53;;;17.55;36.32
62164;BME280;48149;51.132;7.178;2023-04-27T04:50:25;98988.06;;;16.83;37.53
62164;BME280;48149;51.132;7.178;2023-04-27T04:52:50;98987.53;;;16.64;38.03
62164;BME280;48149;51.132;7.178;2023-04-27T04:55:15;98987.53;;;17.46;37.25
62164;BME280;48149;51.132;7.178;2023-04-27T04:57:41;98983.22;;;17.62;37.15
62164;BME280;48149;51.132;7.178;2023-04-27T05:00:06;98986.44;;;17.47;36.20
62164;BME280;48149;51.132;7.178;2023-04-27T05:02:36;98996.63;;;17.82;36.34
62164;BME280;48149;51.132;7.178;2023-04-27T05:05:01;98992.63;;;18.06;36.11
62164;BME280;48149;51.132;7.178;2023-04-27T05:07:26;98996.59;;;17.77;36.28
62164;BME280;48149;51.132;7.178;2023-04-27T05:09:51;98994.22;;;18.76;35.81
62164;BME280;48149;51.132;7.178;2023-04-27T05:12:17;98987.50;;;17.94;36.27
62164;BME280;48149;51.132;7.178;2023-04-27T05:14:42;98996.63;;;18.82;35.57
62164;BME280;48149;51.132;7.178;2023-04-27T05:17:08;98997.47;;;17.87;36.05
62164;BME280;48149;51.132;7.178;2023-04-27T05:19:33;99001.25;;;17.65;36.20
62164;BME280;48149;51.132;7.178;2023-04-27T05:21:58;99000.53;;;18.33;35.51
62164;BME280;48149;51.132;7.178;2023-04-27T05:24:24;98997.19;;;18.47;35.75
62164;BME280;48149;51.132;7.178;2023-04-27T05:26:50;99007.44;;;19.12;34.48
62164;BME280;48149;51.132;7.178;2023-04-27T05:29:15;99006.72;;;18.80;35.04
62164;BME280;48149;51.132;7.178;2023-04-27T05:31:41;99010.06;;;19.12;34.85
62164;BME280;48149;51.132;7.178;2023-04-27T05:34:07;99015.00;;;19.51;33.77
62164;BME280;48149;51.132;7.178;2023-04-27T05:36:33;99011.63;;;19.65;33.91
62164;BME280;48149;51.132;7.178;2023-04-27T05:38:59;99013.22;;;19.77;34.17
62164;BME280;48149;51.132;7.178;2023-04-27T05:41:25;99020.31;;;19.46;34.08
62164;BME280;48149;51.132;7.178;2023-04-27T05:43:50;99022.44;;;19.44;33.88
62164;BME280;48149;51.132;7.178;2023-04-27T05:46:16;99017.69;;;19.61;33.90
62164;BME280;48149;51.132;7.178;2023-04-27T05:48:41;99016.72;;;20.12;33.73
62164;BME280;48149;51.132;7.178;2023-04-27T05:51:06;99022.81;;;19.93;33.52
62164;BME280;48149;51.132;7.178;2023-04-27T05:53:32;99024.66;;;19.77;34.21
62164;BME280;48149;51.132;7.178;2023-04-27T05:55:57;99016.47;;;20.59;33.35
62164;BME280;48149;51.132;7.178;2023-04-27T05:58:23;99029.66;;;19.63;33.97
62164;BME280;48149;51.132;7.178;2023-04-27T06:00:48;99039.00;;;19.76;33.68
62164;BME280;48149;51.132;7.178;2023-04-27T06:03:14;99036.44;;;20.27;33.45
62164;BME280;48149;51.132;7.178;2023-04-27T06:05:40;99026.25;;;21.09;32.02
62164;BME280;48149;51.132;7.178;2023-04-27T06:08:05;99030.06;;;19.30;34.45
62164;BME280;48149;51.132;7.178;2023-04-27T06:10:30;99038.22;;;19.81;34.13
62164;BME280;48149;51.132;7.178;2023-04-27T06:12:55;99044.94;;;20.59;33.64
62164;BME280;48149;51.132;7.178;2023-04-27T06:15:21;99036.78;;;18.91;34.25
62164;BME280;48149;51.132;7.178;2023-04-27T06:17:46;99056.09;;;20.71;33.06
62164;BME280;48149;51.132;7.178;2023-04-27T06:20:11;99054.75;;;20.89;32.82
62164;BME280;48149;51.132;7.178;2023-04-27T06:22:37;99051.13;;;19.52;33.74
62164;BME280;48149;51.132;7.178;2023-04-27T06:25:06;99050.78;;;19.33;34.41
62164;BME280;48149;51.132;7.178;2023-04-27T06:27:31;99049.59;;;19.66;34.25
62164;BME280;48149;51.132;7.178;2023-04-27T06:29:57;99040.31;;;18.70;34.99
62164;BME280;48149;51.132;7.178;2023-04-27T06:32:22;99048.38;;;20.74;33.17
62164;BME280;48149;51.132;7.178;2023-04-27T06:34:48;99041.97;;;20.05;32.52
62164;BME280;48149;51.132;7.178;2023-04-27T06:37:13;99051.28;;;20.12;32.69
62164;BME280;48149;51.132;7.178;2023-04-27T06:39:44;99052.28;;;19.86;33.19
62164;BME280;48149;51.132;7.178;2023-04-27T06:42:10;99046.44;;;19.74;33.27
62164;BME280;48149;51.132;7.178;2023-04-27T06:44:35;99047.84;;;20.07;32.18
62164;BME280;48149;51.132;7.178;2023-04-27T06:47:01;99047.06;;;20.37;33.56
62164;BME280;48149;51.132;7.178;2023-04-27T06:49:26;99046.78;;;20.84;32.60
62164;BME280;48149;51.132;7.178;2023-04-27T06:51:51;99035.53;;;21.07;31.09
62164;BME280;48149;51.132;7.178;2023-04-27T06:54:17;99042.81;;;20.46;31.78
62164;BME280;48149;51.132;7.178;2023-04-27T06:56:42;99038.00;;;20.68;32.68
62164;BME280;48149;51.132;7.178;2023-04-27T06:59:08;99036.47;;;22.05;30.82
62164;BME280;48149;51.132;7.178;2023-04-27T07:01:33;99041.66;;;23.35;28.94
62164;BME280;48149;51.132;7.178;2023-04-27T07:03:59;99036.97;;;22.07;30.14
62164;BME280;48149;51.132;7.178;2023-04-27T07:06:24;99030.38;;;22.33;30.07
62164;BME280;48149;51.132;7.178;2023-04-27T07:08:50;99029.31;;;22.68;29.06
62164;BME280;48149;51.132;7.178;2023-04-27T07:11:16;99041.44;;;23.74;29.26
62164;BME280;48149;51.132;7.178;2023-04-27T07:13:41;99041.44;;;22.84;28.69
62164;BME280;48149;51.132;7.178;2023-04-27T07:16:06;99050.56;;;24.62;27.50
62164;BME280;48149;51.132;7.178;2023-04-27T07:18:32;99046.75;;;24.17;27.15
62164;BME280;48149;51.132;7.178;2023-04-27T07:20:57;99040.50;;;23.84;26.95
62164;BME280;48149;51.132;7.178;2023-04-27T07:23:22;99048.88;;;24.98;27.03
62164;BME280;48149;51.132;7.178;2023-04-27T07:25:48;99045.44;;;24.79;27.52
62164;BME280;48149;51.132;7.178;2023-04-27T07:28:13;99038.06;;;23.69;28.26
62164;BME280;48149;51.132;7.178;2023-04-27T07:30:39;99038.56;;;22.76;28.67
62164;BME280;48149;51.132;7.178;2023-04-27T07:33:05;99039.69;;;22.70;28.44
62164;BME280;48149;51.132;7.178;2023-04-27T07:35:31;99041.75;;;24.75;26.52
62164;BME280;48149;51.132;7.178;2023-04-27T07:37:56;99038.75;;;24.30;27.55
62164;BME280;48149;51.132;7.178;2023-04-27T07:40:21;99041.44;;;24.95;26.76
62164;BME280;48149;51.132;7.178;2023-04-27T07:42:48;99041.19;;;24.13;28.44
62164;BME280;48149;51.132;7.178;2023-04-27T07:45:13;99036.59;;;25.24;26.45
62164;BME280;48149;51.132;7.178;2023-04-27T07:47:39;99041.69;;;24.15;26.49
62164;BME280;48149;51.132;7.178;2023-04-27T07:50:07;99041.13;;;25.10;25.52
62164;BME280;48149;51.132;7.178;2023-04-27T07:52:33;99039.94;;;25.03;26.50
62164;BME280;48149;51.132;7.178;2023-04-27T07:54:58;99039.44;;;23.85;26.15
62164;BME280;48149;51.132;7.178;2023-04-27T07:57:23;99036.22;;;24.02;26.51
62164;BME280;48149;51.132;7.178;2023-04-27T07:59:48;99043.72;;;25.02;26.06
62164;BME280;48149;51.132;7.178;2023-04-27T08:02:14;99045.28;;;25.71;25.52
62164;BME280;48149;51.132;7.178;2023-04-27T08:04:39;99040.41;;;25.73;25.40
62164;BME280;48149;51.132;7.178;2023-04-27T08:07:04;99038.31;;;25.70;25.46
62164;BME280;48149;51.132;7.178;2023-04-27T08:09:30;99043.13;;;25.45;24.20
62164;BME280;48149;51.132;7.178;2023-04-27T08:11:56;99053.31;;;25.03;25.60
62164;BME280;48149;51.132;7.178;2023-04-27T08:14:21;99045.00;;;25.04;25.90
62164;BME280;48149;51.132;7.178;2023-04-27T08:16:46;99038.16;;;23.82;25.13
62164;BME280;48149;51.132;7.178;2023-04-27T08:19:12;99039.63;;;23.27;24.58
62164;BME280;48149;51.132;7.178;2023-04-27T08:21:37;99034.38;;;24.85;24.27
62164;BME280;48149;51.132;7.178;2023-04-27T08:24:03;99035.31;;;24.76;23.72
62164;BME280;48149;51.132;7.178;2023-04-27T08:26:28;99034.41;;;24.99;23.37
62164;BME280;48149;51.132;7.178;2023-04-27T08:28:53;99038.34;;;24.56;24.00
62164;BME280;48149;51.132;7.178;2023-04-27T08:31:21;99032.28;;;27.37;22.30
62164;BME280;48149;51.132;7.178;2023-04-27T08:33:46;99033.41;;;25.36;23.87
62164;BME280;48149;51.132;7.178;2023-04-27T08:36:12;99026.22;;;23.75;24.46
62164;BME280;48149;51.132;7.178;2023-04-27T08:38:37;99025.34;;;25.99;23.94
62164;BME280;48149;51.132;7.178;2023-04-27T08:41:02;99022.88;;;25.26;24.30
62164;BME280;48149;51.132;7.178;2023-04-27T08:43:31;99018.75;;;26.05;23.94
62164;BME280;48149;51.132;7.178;2023-04-27T08:45:56;99017.44;;;26.38;21.91
62164;BME280;48149;51.132;7.178;2023-04-27T08:48:22;99023.59;;;23.27;24.67
62164;BME280;48149;51.132;7.178;2023-04-27T08:50:48;99012.44;;;25.65;24.41
62164;BME280;48149;51.132;7.178;2023-04-27T08:53:20;99011.88;;;26.13;23.47
62164;BME280;48149;51.132;7.178;2023-04-27T08:55:46;99016.72;;;26.11;23.36
62164;BME280;48149;51.132;7.178;2023-04-27T08:58:11;99019.63;;;25.78;23.58
62164;BME280;48149;51.132;7.178;2023-04-27T09:00:37;99012.09;;;27.48;23.32
62164;BME280;48149;51.132;7.178;2023-04-27T09:03:06;99014.13;;;24.93;24.66
62164;BME280;48149;51.132;7.178;2023-04-27T09:05:32;99007.63;;;25.76;24.59
62164;BME280;48149;51.132;7.178;2023-04-27T09:08:04;99012.25;;;28.37;22.98
62164;BME280;48149;51.132;7.178;2023-04-27T09:13:09;99015.34;;;27.36;21.56
62164;BME280;48149;51.132;7.178;2023-04-27T09:15:45;99014.31;;;27.72;22.12
62164;BME280;48149;51.132;7.178;2023-04-27T09:18:13;99014.66;;;26.08;23.55
62164;BME280;48149;51.132;7.178;2023-04-27T09:20:45;99017.16;;;27.49;21.79
62164;BME280;48149;51.132;7.178;2023-04-27T09:23:21;99017.41;;;27.39;21.45
62164;BME280;48149;51.132;7.178;2023-04-27T09:25:48;99013.28;;;28.62;22.23
62164;BME280;48149;51.132;7.178;2023-04-27T09:28:14;99001.13;;;29.40;21.69
62164;BME280;48149;51.132;7.178;2023-04-27T09:30:39;99006.75;;;30.63;19.93
62164;BME280;48149;51.132;7.178;2023-04-27T09:33:07;99009.41;;;29.77;21.12
62164;BME280;48149;51.132;7.178;2023-04-27T09:35:33;99007.38;;;29.74;20.23
62164;BME280;48149;51.132;7.178;2023-04-27T09:37:58;99007.38;;;27.14;20.99
62164;BME280;48149;51.132;7.178;2023-04-27T09:40:25;99010.16;;;30.39;20.16
62164;BME280;48149;51.132;7.178;2023-04-27T09:42:53;99003.47;;;32.62;18.53
62164;BME280;48149;51.132;7.178;2023-04-27T09:45:18;98995.13;;;33.17;18.51
62164;BME280;48149;51.132;7.178;2023-04-27T09:47:44;98992.94;;;32.76;18.09
62164;BME280;48149;51.132;7.178;2023-04-27T09:50:11;98992.72;;;29.62;19.72
62164;BME280;48149;51.132;7.178;2023-04-27T09:52:36;98999.34;;;30.84;19.22
62164;BME280;48149;51.132;7.178;2023-04-27T09:55:01;99003.25;;;30.62;19.44
62164;BME280;48149;51.132;7.178;2023-04-27T09:57:32;99000.56;;;30.87;18.95
62164;BME280;48149;51.132;7.178;2023-04-27T10:08:12;98986.22;;;30.50;19.50
62164;BME280;48149;51.132;7.178;2023-04-27T10:10:41;98983.91;;;30.28;18.91
62164;BME280;48149;51.132;7.178;2023-04-27T10:13:07;98981.31;;;29.57;20.04
62164;BME280;48149;51.132;7.178;2023-04-27T10:15:33;98983.63;;;34.13;16.90
62164;BME280;48149;51.132;7.178;2023-04-27T10:18:03;98983.91;;;33.35;16.95
62164;BME280;48149;51.132;7.178;2023-04-27T10:20:30;98984.38;;;32.90;18.82
62164;BME280;48149;51.132;7.178;2023-04-27T10:22:56;98971.03;;;29.71;20.33
62164;BME280;48149;51.132;7.178;2023-04-27T10:25:24;98975.03;;;32.71;17.46
62164;BME280;48149;51.132;7.178;2023-04-27T10:30:16;98971.66;;;33.25;16.64
62164;BME280;48149;51.132;7.178;2023-04-27T10:33:16;98969.50;;;31.29;17.56
62164;BME280;48149;51.132;7.178;2023-04-27T10:35:35;98961.25;;;30.20;18.74
62164;BME280;48149;51.132;7.178;2023-04-27T10:38:08;98967.44;;;32.18;18.03
62164;BME280;48149;51.132;7.178;2023-04-27T10:40:34;98951.81;;;29.31;20.76
62164;BME280;48149;51.132;7.178;2023-04-27T10:43:06;98962.25;;;28.19;20.16
62164;BME280;48149;51.132;7.178;2023-04-27T10:45:32;98949.72;;;29.37;20.99
62164;BME280;48149;51.132;7.178;2023-04-27T10:47:59;98952.16;;;29.71;20.43
62164;BME280;48149;51.132;7.178;2023-04-27T10:50:25;98952.06;;;32.38;19.18
62164;BME280;48149;51.132;7.178;2023-04-27T10:52:50;98960.41;;;33.42;17.92
62164;BME280;48149;51.132;7.178;2023-04-27T10:55:16;98959.69;;;34.64;17.31
62164;BME280;48149;51.132;7.178;2023-04-27T10:57:53;98951.00;;;34.13;17.97
62164;BME280;48149;51.132;7.178;2023-04-27T11:02:47;98947.66;;;31.62;19.02
62164;BME280;48149;51.132;7.178;2023-04-27T11:05:16;98949.97;;;31.36;19.30
62164;BME280;48149;51.132;7.178;2023-04-27T11:07:42;98951.63;;;32.36;18.64
62164;BME280;48149;51.132;7.178;2023-04-27T11:10:07;98941.84;;;34.89;18.10
62164;BME280;48149;51.132;7.178;2023-04-27T11:12:33;98951.69;;;31.80;19.54
62164;BME280;48149;51.132;7.178;2023-04-27T11:14:58;98946.53;;;31.91;18.66
62164;BME280;48149;51.132;7.178;2023-04-27T11:17:30;98953.34;;;31.85;17.50
62164;BME280;48149;51.132;7.178;2023-04-27T11:19:56;98938.25;;;32.11;17.36
62164;BME280;48149;51.132;7.178;2023-04-27T11:22:21;98936.88;;;29.54;19.89
62164;BME280;48149;51.132;7.178;2023-04-27T11:24:50;98934.47;;;32.16;18.33
62164;BME280;48149;51.132;7.178;2023-04-27T11:27:15;98946.47;;;32.31;18.82
62164;BME280;48149;51.132;7.178;2023-04-27T11:29:41;98933.31;;;34.22;17.52
62164;BME280;48149;51.132;7.178;2023-04-27T11:32:07;98929.88;;;35.53;16.41
62164;BME280;48149;51.132;7.178;2023-04-27T11:34:32;98934.13;;;31.10;18.75
62164;BME280;48149;51.132;7.178;2023-04-27T11:37:04;98934.84;;;33.08;18.30
62164;BME280;48149;51.132;7.178;2023-04-27T11:39:34;98929.41;;;34.01;17.78
62164;BME280;48149;51.132;7.178;2023-04-27T11:47:20;98930.94;;;35.15;16.60
62164;BME280;48149;51.132;7.178;2023-04-27T11:49:56;98921.75;;;34.52;16.21
62164;BME280;48149;51.132;7.178;2023-04-27T11:52:22;98927.13;;;34.48;16.73
62164;BME280;48149;51.132;7.178;2023-04-27T11:54:52;98919.59;;;35.69;16.42
62164;BME280;48149;51.132;7.178;2023-04-27T11:57:22;98915.00;;;35.73;16.58
62164;BME280;48149;51.132;7.178;2023-04-27T11:59:49;98906.63;;;30.84;19.95
62164;BME280;48149;51.132;7.178;2023-04-27T12:02:14;98913.41;;;32.88;18.55
62164;BME280;48149;51.132;7.178;2023-04-27T12:04:39;98910.16;;;33.13;17.52
62164;BME280;48149;51.132;7.178;2023-04-27T12:07:04;98902.75;;;33.49;18.15
62164;BME280;48149;51.132;7.178;2023-04-27T12:09:30;98903.47;;;34.98;17.92
62164;BME280;48149;51.132;7.178;2023-04-27T12:11:55;98909.78;;;35.31;16.96
62164;BME280;48149;51.132;7.178;2023-04-27T12:14:21;98908.44;;;38.91;15.53
62164;BME280;48149;51.132;7.178;2023-04-27T12:16:46;98903.31;;;34.15;17.38
62164;BME280;48149;51.132;7.178;2023-04-27T12:19:11;98898.75;;;33.43;17.94
62164;BME280;48149;51.132;7.178;2023-04-27T12:21:36;98898.94;;;32.33;18.05
62164;BME280;48149;51.132;7.178;2023-04-27T12:24:02;98902.09;;;37.85;16.14
62164;BME280;48149;51.132;7.178;2023-04-27T12:26:27;98893.22;;;38.41;15.38
62164;BME280;48149;51.132;7.178;2023-04-27T12:28:53;98888.63;;;36.25;15.80
62164;BME280;48149;51.132;7.178;2023-04-27T12:31:18;98879.78;;;34.49;17.66
62164;BME280;48149;51.132;7.178;2023-04-27T12:33:48;98877.97;;;38.51;14.37
62164;BME280;48149;51.132;7.178;2023-04-27T12:36:15;98877.97;;;41.17;13.50
62164;BME280;48149;51.132;7.178;2023-04-27T12:38:40;98868.50;;;37.84;15.06
62164;BME280;48149;51.132;7.178;2023-04-27T12:41:05;98875.25;;;36.06;16.55
62164;BME280;48149;51.132;7.178;2023-04-27T12:43:31;98879.25;;;32.67;18.16
62164;BME280;48149;51.132;7.178;2023-04-27T12:45:56;98876.16;;;35.80;16.17
62164;BME280;48149;51.132;7.178;2023-04-27T12:48:21;98877.84;;;32.73;18.26
62164;BME280;48149;51.132;7.178;2023-04-27T12:50:47;98874.69;;;35.90;16.99
62164;BME280;48149;51.132;7.178;2023-04-27T12:53:12;98872.72;;;35.87;16.81
62164;BME280;48149;51.132;7.178;2023-04-27T12:55:38;98878.53;;;35.52;17.26
62164;BME280;48149;51.132;7.178;2023-04-27T12:58:03;98881.22;;;36.69;16.12
62164;BME280;48149;51.132;7.178;2023-04-27T13:00:29;98881.28;;;36.29;15.55
62164;BME280;48149;51.132;7.178;2023-04-27T13:02:54;98874.41;;;34.30;15.82
62164;BME280;48149;51.132;7.178;2023-04-27T13:05:20;98875.22;;;35.69;15.88
62164;BME280;48149;51.132;7.178;2023-04-27T13:07:48;98874.44;;;37.07;15.16
62164;BME280;48149;51.132;7.178;2023-04-27T13:10:14;98877.28;;;36.63;15.37
62164;BME280;48149;51.132;7.178;2023-04-27T13:12:39;98870.19;;;34.33;16.16
62164;BME280;48149;51.132;7.178;2023-04-27T13:15:05;98866.13;;;37.65;14.89